sensor_id;sensor_type;location;lat;lon;timestamp;P1;durP1;ratioP1;P2;durP2;ratioP2
22628;SDS011;11481;53.694;9.910;2023-02-14T00:00:47;27.98;;;9.38;;
22628;SDS011;11481;53.694;9.910;2023-02-14T00:03:14;27.55;;;9.77;;
22628;SDS011;11481;53.694;9.910;2023-02-14T00:05:41;24.15;;;9.32;;
22628;SDS011;11481;53.694;9.910;2023-02-14T00:08:07;28.08;;;8.48;;
22628;SDS011;11481;53.694;9.910;2023-02-14T00:10:34;25.17;;;8.23;;
22628;SDS011;11481;53.694;9.910;2023-02-14T00:13:01;25.63;;;9.07;;
22628;SDS011;11481;53.694;9.910;2023-02-14T00:15:28;20.30;;;8.10;;
22628;SDS011;11481;53.694;9.910;2023-02-14T00:17:55;28.20;;;8.55;;
22628;SDS011;11481;53.694;9.910;2023-02-14T00:20:26;20.58;;;8.35;;
22628;SDS011;11481;53.694;9.910;2023-02-14T00:22:53;27.33;;;8.77;;
22628;SDS011;11481;53.694;9.910;2023-02-14T00:25:20;27.65;;;8.90;;
22628;SDS011;11481;53.694;9.910;2023-02-14T00:27:47;25.23;;;8.23;;
22628;SDS011;11481;53.694;9.910;2023-02-14T00:30:13;25.13;;;9.95;;
22628;SDS011;11481;53.694;9.910;2023-02-14T00:32:41;25.20;;;9.25;;
22628;SDS011;11481;53.694;9.910;2023-02-14T00:35:08;30.45;;;9.77;;
22628;SDS011;11481;53.694;9.910;2023-02-14T00:37:36;30.83;;;8.90;;
22628;SDS011;11481;53.694;9.910;2023-02-14T00:40:04;31.13;;;9.10;;
22628;SDS011;11481;53.694;9.910;2023-02-14T00:42:31;29.50;;;9.95;;
22628;SDS011;11481;53.694;9.910;2023-02-14T00:44:58;26.45;;;9.07;;
22628;SDS011;11481;53.694;9.910;2023-02-14T00:47:25;30.70;;;9.40;;
22628;SDS011;11481;53.694;9.910;2023-02-14T00:49:52;27.20;;;10.50;;
22628;SDS011;11481;53.694;9.910;2023-02-14T00:52:18;29.85;;;10.15;;
22628;SDS011;11481;53.694;9.910;2023-02-14T00:54:45;27.75;;;9.30;;
22628;SDS011;11481;53.694;9.910;2023-02-14T00:57:12;24.80;;;8.82;;
22628;SDS011;11481;53.694;9.910;2023-02-14T00:59:39;26.25;;;8.82;;
22628;SDS011;11481;53.694;9.910;2023-02-14T01:02:06;27.52;;;8.70;;
22628;SDS011;11481;53.694;9.910;2023-02-14T01:04:32;22.25;;;8.25;;
22628;SDS011;11481;53.694;9.910;2023-02-14T01:06:59;25.52;;;9.13;;
22628;SDS011;11481;53.694;9.910;2023-02-14T01:09:26;29.08;;;8.73;;
22628;SDS011;11481;53.694;9.910;2023-02-14T01:11:53;27.88;;;9.20;;
22628;SDS011;11481;53.694;9.910;2023-02-14T01:14:20;35.35;;;11.07;;
22628;SDS011;11481;53.694;9.910;2023-02-14T01:16:47;35.20;;;9.32;;
22628;SDS011;11481;53.694;9.910;2023-02-14T01:19:13;35.47;;;9.85;;
22628;SDS011;11481;53.694;9.910;2023-02-14T01:21:40;31.95;;;10.10;;
22628;SDS011;11481;53.694;9.910;2023-02-14T01:24:07;28.58;;;9.32;;
22628;SDS011;11481;53.694;9.910;2023-02-14T01:26:40;25.17;;;8.80;;
22628;SDS011;11481;53.694;9.910;2023-02-14T01:29:06;27.60;;;9.82;;
22628;SDS011;11481;53.694;9.910;2023-02-14T01:31:34;23.83;;;9.18;;
22628;SDS011;11481;53.694;9.910;2023-02-14T01:34:01;26.73;;;9.13;;
22628;SDS011;11481;53.694;9.910;2023-02-14T01:36:30;36.65;;;9.82;;
22628;SDS011;11481;53.694;9.910;2023-02-14T01:39:00;35.85;;;10.13;;
22628;SDS011;11481;53.694;9.910;2023-02-14T01:41:31;28.60;;;9.73;;
22628;SDS011;11481;53.694;9.910;2023-02-14T01:44:04;27.77;;;9.07;;
22628;SDS011;11481;53.694;9.910;2023-02-14T01:46:40;24.58;;;10.50;;
22628;SDS011;11481;53.694;9.910;2023-02-14T01:52:00;30.25;;;10.45;;
22628;SDS011;11481;53.694;9.910;2023-02-14T01:54:40;25.50;;;9.40;;
22628;SDS011;11481;53.694;9.910;2023-02-14T01:57:11;34.58;;;9.23;;
22628;SDS011;11481;53.694;9.910;2023-02-14T01:59:54;27.63;;;11.10;;
22628;SDS011;11481;53.694;9.910;2023-02-14T02:02:44;33.28;;;9.50;;
22628;SDS011;11481;53.694;9.910;2023-02-14T02:05:11;26.85;;;8.88;;
22628;SDS011;11481;53.694;9.910;2023-02-14T02:07:40;23.73;;;8.77;;
22628;SDS011;11481;53.694;9.910;2023-02-14T02:10:07;26.02;;;8.88;;
22628;SDS011;11481;53.694;9.910;2023-02-14T02:12:34;24.70;;;9.27;;
22628;SDS011;11481;53.694;9.910;2023-02-14T02:15:03;29.48;;;9.55;;
22628;SDS011;11481;53.694;9.910;2023-02-14T02:17:48;24.45;;;8.73;;
22628;SDS011;11481;53.694;9.910;2023-02-14T02:32:05;30.50;;;8.80;;
22628;SDS011;11481;53.694;9.910;2023-02-14T02:49:23;34.50;;;10.75;;
22628;SDS011;11481;53.694;9.910;2023-02-14T02:52:15;25.70;;;9.15;;
22628;SDS011;11481;53.694;9.910;2023-02-14T02:55:11;30.08;;;10.52;;
22628;SDS011;11481;53.694;9.910;2023-02-14T02:57:42;29.05;;;9.13;;
22628;SDS011;11481;53.694;9.910;2023-02-14T03:00:11;30.88;;;9.90;;
22628;SDS011;11481;53.694;9.910;2023-02-14T03:02:42;25.20;;;9.65;;
22628;SDS011;11481;53.694;9.910;2023-02-14T03:05:31;36.63;;;10.30;;
22628;SDS011;11481;53.694;9.910;2023-02-14T03:08:00;27.80;;;9.50;;
22628;SDS011;11481;53.694;9.910;2023-02-14T03:10:29;25.58;;;8.60;;
22628;SDS011;11481;53.694;9.910;2023-02-14T03:18:36;26.42;;;9.07;;
22628;SDS011;11481;53.694;9.910;2023-02-14T03:21:51;28.77;;;10.15;;
22628;SDS011;11481;53.694;9.910;2023-02-14T03:24:37;30.30;;;9.82;;
22628;SDS011;11481;53.694;9.910;2023-02-14T03:27:24;29.05;;;9.65;;
22628;SDS011;11481;53.694;9.910;2023-02-14T03:29:59;25.55;;;9.65;;
22628;SDS011;11481;53.694;9.910;2023-02-14T03:32:36;29.02;;;10.73;;
22628;SDS011;11481;53.694;9.910;2023-02-14T03:38:04;31.65;;;11.65;;
22628;SDS011;11481;53.694;9.910;2023-02-14T03:40:42;30.75;;;10.23;;
22628;SDS011;11481;53.694;9.910;2023-02-14T03:43:29;32.08;;;10.88;;
22628;SDS011;11481;53.694;9.910;2023-02-14T03:46:07;28.58;;;9.25;;
22628;SDS011;11481;53.694;9.910;2023-02-14T03:48:39;26.00;;;8.55;;
22628;SDS011;11481;53.694;9.910;2023-02-14T03:51:08;30.80;;;10.20;;
22628;SDS011;11481;53.694;9.910;2023-02-14T03:53:39;31.38;;;11.20;;
22628;SDS011;11481;53.694;9.910;2023-02-14T03:56:13;33.33;;;10.00;;
22628;SDS011;11481;53.694;9.910;2023-02-14T03:58:44;29.50;;;9.30;;
22628;SDS011;11481;53.694;9.910;2023-02-14T04:01:18;31.02;;;10.88;;
22628;SDS011;11481;53.694;9.910;2023-02-14T04:03:48;33.08;;;10.07;;
22628;SDS011;11481;53.694;9.910;2023-02-14T04:06:17;28.23;;;10.45;;
22628;SDS011;11481;53.694;9.910;2023-02-14T04:08:45;32.42;;;9.27;;
22628;SDS011;11481;53.694;9.910;2023-02-14T04:11:12;34.13;;;10.70;;
22628;SDS011;11481;53.694;9.910;2023-02-14T04:13:39;32.80;;;10.70;;
22628;SDS011;11481;53.694;9.910;2023-02-14T04:16:05;32.78;;;10.45;;
22628;SDS011;11481;53.694;9.910;2023-02-14T04:18:32;28.17;;;8.95;;
22628;SDS011;11481;53.694;9.910;2023-02-14T04:21:18;27.63;;;10.18;;
22628;SDS011;11481;53.694;9.910;2023-02-14T04:23:44;27.88;;;9.38;;
22628;SDS011;11481;53.694;9.910;2023-02-14T04:26:11;22.02;;;9.40;;
22628;SDS011;11481;53.694;9.910;2023-02-14T04:28:38;27.83;;;8.90;;
22628;SDS011;11481;53.694;9.910;2023-02-14T04:31:05;31.98;;;10.15;;
22628;SDS011;11481;53.694;9.910;2023-02-14T04:33:32;34.17;;;11.85;;
22628;SDS011;11481;53.694;9.910;2023-02-14T04:35:59;36.70;;;10.18;;
22628;SDS011;11481;53.694;9.910;2023-02-14T04:38:26;26.52;;;9.90;;
22628;SDS011;11481;53.694;9.910;2023-02-14T04:40:53;26.30;;;8.57;;
22628;SDS011;11481;53.694;9.910;2023-02-14T04:43:20;35.80;;;10.25;;
22628;SDS011;11481;53.694;9.910;2023-02-14T04:45:47;27.77;;;10.63;;
22628;SDS011;11481;53.694;9.910;2023-02-14T04:48:13;31.35;;;10.38;;
22628;SDS011;11481;53.694;9.910;2023-02-14T04:50:40;27.55;;;9.07;;
22628;SDS011;11481;53.694;9.910;2023-02-14T04:53:07;29.20;;;10.20;;
22628;SDS011;11481;53.694;9.910;2023-02-14T04:55:34;31.67;;;11.13;;
22628;SDS011;11481;53.694;9.910;2023-02-14T04:58:00;27.95;;;9.73;;
22628;SDS011;11481;53.694;9.910;2023-02-14T05:00:27;32.67;;;9.32;;
22628;SDS011;11481;53.694;9.910;2023-02-14T05:02:54;26.92;;;9.82;;
22628;SDS011;11481;53.694;9.910;2023-02-14T05:05:21;34.42;;;10.48;;
22628;SDS011;11481;53.694;9.910;2023-02-14T05:07:47;26.70;;;8.50;;
22628;SDS011;11481;53.694;9.910;2023-02-14T05:10:14;32.45;;;9.88;;
22628;SDS011;11481;53.694;9.910;2023-02-14T05:12:41;33.35;;;10.32;;
22628;SDS011;11481;53.694;9.910;2023-02-14T05:15:08;31.40;;;11.20;;
22628;SDS011;11481;53.694;9.910;2023-02-14T05:17:35;34.67;;;10.88;;
22628;SDS011;11481;53.694;9.910;2023-02-14T05:20:02;34.63;;;11.45;;
22628;SDS011;11481;53.694;9.910;2023-02-14T05:22:30;36.05;;;10.30;;
22628;SDS011;11481;53.694;9.910;2023-02-14T05:24:57;35.47;;;12.18;;
22628;SDS011;11481;53.694;9.910;2023-02-14T05:27:24;36.20;;;11.15;;
22628;SDS011;11481;53.694;9.910;2023-02-14T05:29:51;30.35;;;10.40;;
22628;SDS011;11481;53.694;9.910;2023-02-14T05:32:18;32.25;;;11.52;;
22628;SDS011;11481;53.694;9.910;2023-02-14T05:34:45;36.10;;;11.98;;
22628;SDS011;11481;53.694;9.910;2023-02-14T05:37:12;30.55;;;11.05;;
22628;SDS011;11481;53.694;9.910;2023-02-14T05:39:39;33.85;;;11.73;;
22628;SDS011;11481;53.694;9.910;2023-02-14T05:42:06;35.47;;;11.75;;
22628;SDS011;11481;53.694;9.910;2023-02-14T05:44:32;35.63;;;11.93;;
22628;SDS011;11481;53.694;9.910;2023-02-14T05:46:59;33.03;;;10.75;;
22628;SDS011;11481;53.694;9.910;2023-02-14T05:49:25;37.67;;;11.25;;
22628;SDS011;11481;53.694;9.910;2023-02-14T05:51:52;34.25;;;10.30;;
22628;SDS011;11481;53.694;9.910;2023-02-14T05:54:19;34.10;;;11.30;;
22628;SDS011;11481;53.694;9.910;2023-02-14T05:56:45;34.97;;;11.27;;
22628;SDS011;11481;53.694;9.910;2023-02-14T05:59:13;44.80;;;12.70;;
22628;SDS011;11481;53.694;9.910;2023-02-14T06:01:39;31.52;;;10.50;;
22628;SDS011;11481;53.694;9.910;2023-02-14T06:04:08;41.63;;;11.38;;
22628;SDS011;11481;53.694;9.910;2023-02-14T06:06:34;32.80;;;12.10;;
22628;SDS011;11481;53.694;9.910;2023-02-14T06:09:02;28.13;;;11.35;;
22628;SDS011;11481;53.694;9.910;2023-02-14T06:11:28;37.88;;;11.38;;
22628;SDS011;11481;53.694;9.910;2023-02-14T06:13:55;26.85;;;10.38;;
22628;SDS011;11481;53.694;9.910;2023-02-14T06:16:22;41.15;;;12.02;;
22628;SDS011;11481;53.694;9.910;2023-02-14T06:18:49;35.85;;;11.60;;
22628;SDS011;11481;53.694;9.910;2023-02-14T06:21:15;37.97;;;11.93;;
22628;SDS011;11481;53.694;9.910;2023-02-14T06:23:42;30.25;;;9.80;;
22628;SDS011;11481;53.694;9.910;2023-02-14T06:26:09;44.22;;;12.40;;
22628;SDS011;11481;53.694;9.910;2023-02-14T06:28:36;39.17;;;11.77;;
22628;SDS011;11481;53.694;9.910;2023-02-14T06:31:02;30.40;;;10.90;;
22628;SDS011;11481;53.694;9.910;2023-02-14T06:33:30;37.08;;;11.60;;
22628;SDS011;11481;53.694;9.910;2023-02-14T06:35:57;32.65;;;11.57;;
22628;SDS011;11481;53.694;9.910;2023-02-14T06:38:23;29.52;;;10.82;;
22628;SDS011;11481;53.694;9.910;2023-02-14T06:40:50;33.75;;;10.95;;
22628;SDS011;11481;53.694;9.910;2023-02-14T06:43:17;34.47;;;10.57;;
22628;SDS011;11481;53.694;9.910;2023-02-14T06:45:45;43.65;;;11.55;;
22628;SDS011;11481;53.694;9.910;2023-02-14T06:48:11;32.97;;;9.63;;
22628;SDS011;11481;53.694;9.910;2023-02-14T06:50:38;29.52;;;10.27;;
22628;SDS011;11481;53.694;9.910;2023-02-14T06:53:05;35.55;;;11.07;;
22628;SDS011;11481;53.694;9.910;2023-02-14T06:55:32;41.28;;;12.20;;
22628;SDS011;11481;53.694;9.910;2023-02-14T06:57:58;36.90;;;11.02;;
22628;SDS011;11481;53.694;9.910;2023-02-14T07:00:25;33.00;;;10.23;;
22628;SDS011;11481;53.694;9.910;2023-02-14T07:02:52;35.38;;;11.68;;
22628;SDS011;11481;53.694;9.910;2023-02-14T07:05:19;33.97;;;10.48;;
22628;SDS011;11481;53.694;9.910;2023-02-14T07:07:47;36.50;;;11.52;;
22628;SDS011;11481;53.694;9.910;2023-02-14T07:10:14;40.95;;;11.77;;
22628;SDS011;11481;53.694;9.910;2023-02-14T07:12:41;30.27;;;9.90;;
22628;SDS011;11481;53.694;9.910;2023-02-14T07:15:08;30.88;;;10.52;;
22628;SDS011;11481;53.694;9.910;2023-02-14T07:17:37;29.02;;;9.32;;
22628;SDS011;11481;53.694;9.910;2023-02-14T07:20:04;37.47;;;11.55;;
22628;SDS011;11481;53.694;9.910;2023-02-14T07:22:32;30.40;;;11.25;;
22628;SDS011;11481;53.694;9.910;2023-02-14T07:24:59;39.05;;;12.02;;
22628;SDS011;11481;53.694;9.910;2023-02-14T07:27:26;36.80;;;10.95;;
22628;SDS011;11481;53.694;9.910;2023-02-14T07:29:56;32.33;;;11.38;;
22628;SDS011;11481;53.694;9.910;2023-02-14T07:32:23;39.30;;;11.13;;
22628;SDS011;11481;53.694;9.910;2023-02-14T07:34:50;31.05;;;10.10;;
22628;SDS011;11481;53.694;9.910;2023-02-14T07:37:17;41.55;;;13.50;;
22628;SDS011;11481;53.694;9.910;2023-02-14T07:39:44;33.90;;;10.85;;
22628;SDS011;11481;53.694;9.910;2023-02-14T07:42:11;29.23;;;10.43;;
22628;SDS011;11481;53.694;9.910;2023-02-14T07:44:38;34.15;;;11.38;;
22628;SDS011;11481;53.694;9.910;2023-02-14T07:47:07;35.67;;;10.43;;
22628;SDS011;11481;53.694;9.910;2023-02-14T07:49:37;31.10;;;10.60;;
22628;SDS011;11481;53.694;9.910;2023-02-14T07:52:05;32.85;;;11.77;;
22628;SDS011;11481;53.694;9.910;2023-02-14T07:54:32;37.20;;;11.63;;
22628;SDS011;11481;53.694;9.910;2023-02-14T07:56:58;36.75;;;10.57;;
22628;SDS011;11481;53.694;9.910;2023-02-14T07:59:26;26.48;;;10.10;;
22628;SDS011;11481;53.694;9.910;2023-02-14T08:01:53;31.67;;;10.43;;
22628;SDS011;11481;53.694;9.910;2023-02-14T08:04:20;38.83;;;12.73;;
22628;SDS011;11481;53.694;9.910;2023-02-14T08:06:51;29.52;;;10.48;;
22628;SDS011;11481;53.694;9.910;2023-02-14T08:09:21;32.47;;;9.57;;
22628;SDS011;11481;53.694;9.910;2023-02-14T08:11:52;35.25;;;11.60;;
22628;SDS011;11481;53.694;9.910;2023-02-14T08:14:47;36.55;;;10.27;;
22628;SDS011;11481;53.694;9.910;2023-02-14T08:17:14;32.08;;;10.95;;
22628;SDS011;11481;53.694;9.910;2023-02-14T08:19:41;29.50;;;9.82;;
22628;SDS011;11481;53.694;9.910;2023-02-14T08:22:08;36.05;;;11.23;;
22628;SDS011;11481;53.694;9.910;2023-02-14T08:24:35;34.78;;;11.30;;
22628;SDS011;11481;53.694;9.910;2023-02-14T08:27:01;32.42;;;10.50;;
22628;SDS011;11481;53.694;9.910;2023-02-14T08:29:28;32.20;;;11.60;;
22628;SDS011;11481;53.694;9.910;2023-02-14T08:31:55;35.05;;;11.35;;
22628;SDS011;11481;53.694;9.910;2023-02-14T08:34:27;34.72;;;11.02;;
22628;SDS011;11481;53.694;9.910;2023-02-14T08:36:55;27.98;;;9.48;;
22628;SDS011;11481;53.694;9.910;2023-02-14T08:39:22;30.38;;;11.07;;
22628;SDS011;11481;53.694;9.910;2023-02-14T08:41:48;31.98;;;9.40;;
22628;SDS011;11481;53.694;9.910;2023-02-14T08:44:15;28.80;;;9.52;;
22628;SDS011;11481;53.694;9.910;2023-02-14T08:46:42;35.50;;;10.20;;
22628;SDS011;11481;53.694;9.910;2023-02-14T08:49:08;30.05;;;9.95;;
22628;SDS011;11481;53.694;9.910;2023-02-14T08:51:35;27.60;;;9.38;;
22628;SDS011;11481;53.694;9.910;2023-02-14T08:54:02;25.77;;;9.52;;
22628;SDS011;11481;53.694;9.910;2023-02-14T08:56:29;29.08;;;9.82;;
22628;SDS011;11481;53.694;9.910;2023-02-14T08:58:56;27.05;;;10.15;;
22628;SDS011;11481;53.694;9.910;2023-02-14T09:01:23;35.33;;;9.48;;
22628;SDS011;11481;53.694;9.910;2023-02-14T09:03:49;26.85;;;9.30;;
22628;SDS011;11481;53.694;9.910;2023-02-14T09:06:16;35.88;;;10.68;;
22628;SDS011;11481;53.694;9.910;2023-02-14T09:08:43;25.63;;;9.43;;
22628;SDS011;11481;53.694;9.910;2023-02-14T09:11:12;38.40;;;10.57;;
22628;SDS011;11481;53.694;9.910;2023-02-14T09:13:44;29.88;;;9.45;;
22628;SDS011;11481;53.694;9.910;2023-02-14T09:16:12;28.75;;;9.30;;
22628;SDS011;11481;53.694;9.910;2023-02-14T09:18:42;32.50;;;10.05;;
22628;SDS011;11481;53.694;9.910;2023-02-14T09:21:13;21.10;;;8.20;;
22628;SDS011;11481;53.694;9.910;2023-02-14T09:23:42;29.50;;;9.50;;
22628;SDS011;11481;53.694;9.910;2023-02-14T09:26:12;24.20;;;9.55;;
22628;SDS011;11481;53.694;9.910;2023-02-14T09:28:40;25.02;;;8.35;;
22628;SDS011;11481;53.694;9.910;2023-02-14T09:31:17;23.67;;;8.85;;
22628;SDS011;11481;53.694;9.910;2023-02-14T09:33:46;23.85;;;8.88;;
22628;SDS011;11481;53.694;9.910;2023-02-14T09:36:33;24.95;;;8.27;;
22628;SDS011;11481;53.694;9.910;2023-02-14T09:39:19;28.73;;;8.98;;
22628;SDS011;11481;53.694;9.910;2023-02-14T09:50:51;23.42;;;8.57;;
22628;SDS011;11481;53.694;9.910;2023-02-14T09:53:14;22.17;;;8.35;;
22628;SDS011;11481;53.694;9.910;2023-02-14T09:56:08;23.88;;;7.63;;
22628;SDS011;11481;53.694;9.910;2023-02-14T09:58:59;28.98;;;8.70;;
22628;SDS011;11481;53.694;9.910;2023-02-14T10:01:41;26.38;;;8.80;;
22628;SDS011;11481;53.694;9.910;2023-02-14T10:12:50;24.35;;;8.57;;
22628;SDS011;11481;53.694;9.910;2023-02-14T10:15:36;23.08;;;8.25;;
22628;SDS011;11481;53.694;9.910;2023-02-14T10:18:14;23.13;;;8.70;;
22628;SDS011;11481;53.694;9.910;2023-02-14T10:20:49;27.40;;;7.88;;
22628;SDS011;11481;53.694;9.910;2023-02-14T10:23:35;24.58;;;8.25;;
22628;SDS011;11481;53.694;9.910;2023-02-14T10:26:09;25.15;;;8.77;;
22628;SDS011;11481;53.694;9.910;2023-02-14T10:28:47;21.02;;;8.57;;
22628;SDS011;11481;53.694;9.910;2023-02-14T10:31:22;23.73;;;8.73;;
22628;SDS011;11481;53.694;9.910;2023-02-14T10:33:55;24.15;;;8.55;;
22628;SDS011;11481;53.694;9.910;2023-02-14T10:42:53;25.58;;;9.20;;
22628;SDS011;11481;53.694;9.910;2023-02-14T10:45:19;29.75;;;8.07;;
22628;SDS011;11481;53.694;9.910;2023-02-14T10:53:00;21.90;;;8.48;;
22628;SDS011;11481;53.694;9.910;2023-02-14T10:55:46;24.05;;;9.23;;
22628;SDS011;11481;53.694;9.910;2023-02-14T10:58:20;20.30;;;7.60;;
22628;SDS011;11481;53.694;9.910;2023-02-14T11:00:53;23.83;;;9.05;;
22628;SDS011;11481;53.694;9.910;2023-02-14T11:03:34;30.42;;;8.88;;
22628;SDS011;11481;53.694;9.910;2023-02-14T11:06:03;24.50;;;8.88;;
22628;SDS011;11481;53.694;9.910;2023-02-14T11:08:32;21.80;;;8.40;;
22628;SDS011;11481;53.694;9.910;2023-02-14T11:13:41;31.42;;;8.00;;
22628;SDS011;11481;53.694;9.910;2023-02-14T11:16:09;19.70;;;8.15;;
22628;SDS011;11481;53.694;9.910;2023-02-14T11:18:43;23.65;;;8.40;;
22628;SDS011;11481;53.694;9.910;2023-02-14T11:21:14;24.80;;;8.60;;
22628;SDS011;11481;53.694;9.910;2023-02-14T11:23:48;25.98;;;8.98;;
22628;SDS011;11481;53.694;9.910;2023-02-14T11:28:56;24.13;;;8.77;;
22628;SDS011;11481;53.694;9.910;2023-02-14T11:31:30;28.13;;;9.10;;
22628;SDS011;11481;53.694;9.910;2023-02-14T11:33:59;25.33;;;7.90;;
22628;SDS011;11481;53.694;9.910;2023-02-14T11:36:30;22.50;;;8.55;;
22628;SDS011;11481;53.694;9.910;2023-02-14T11:39:04;19.58;;;7.72;;
22628;SDS011;11481;53.694;9.910;2023-02-14T11:41:52;20.70;;;7.88;;
22628;SDS011;11481;53.694;9.910;2023-02-14T11:44:25;20.77;;;8.15;;
22628;SDS011;11481;53.694;9.910;2023-02-14T11:46:54;21.75;;;8.05;;
22628;SDS011;11481;53.694;9.910;2023-02-14T11:49:29;21.10;;;7.30;;
22628;SDS011;11481;53.694;9.910;2023-02-14T11:52:09;20.27;;;7.68;;
22628;SDS011;11481;53.694;9.910;2023-02-14T11:54:45;22.40;;;7.80;;
22628;SDS011;11481;53.694;9.910;2023-02-14T11:59:48;24.20;;;8.35;;
22628;SDS011;11481;53.694;9.910;2023-02-14T12:04:59;23.67;;;8.25;;
22628;SDS011;11481;53.694;9.910;2023-02-14T12:07:33;22.30;;;7.82;;
22628;SDS011;11481;53.694;9.910;2023-02-14T12:10:16;21.13;;;8.07;;
22628;SDS011;11481;53.694;9.910;2023-02-14T12:15:31;21.88;;;9.10;;
22628;SDS011;11481;53.694;9.910;2023-02-14T12:20:59;20.13;;;7.10;;
22628;SDS011;11481;53.694;9.910;2023-02-14T12:31:53;17.00;;;7.70;;
22628;SDS011;11481;53.694;9.910;2023-02-14T12:34:24;21.90;;;7.55;;
22628;SDS011;11481;53.694;9.910;2023-02-14T12:37:11;20.02;;;7.55;;
22628;SDS011;11481;53.694;9.910;2023-02-14T12:47:43;18.27;;;7.72;;
22628;SDS011;11481;53.694;9.910;2023-02-14T12:50:35;19.10;;;8.02;;
22628;SDS011;11481;53.694;9.910;2023-02-14T12:53:15;20.60;;;7.55;;
22628;SDS011;11481;53.694;9.910;2023-02-14T12:56:24;22.65;;;8.63;;
22628;SDS011;11481;53.694;9.910;2023-02-14T12:59:20;21.17;;;8.38;;
22628;SDS011;11481;53.694;9.910;2023-02-14T13:05:19;21.40;;;7.95;;
22628;SDS011;11481;53.694;9.910;2023-02-14T13:08:14;26.42;;;8.07;;
22628;SDS011;11481;53.694;9.910;2023-02-14T13:10:54;18.20;;;7.05;;
22628;SDS011;11481;53.694;9.910;2023-02-14T13:19:05;22.58;;;8.43;;
22628;SDS011;11481;53.694;9.910;2023-02-14T13:21:42;18.92;;;7.20;;
22628;SDS011;11481;53.694;9.910;2023-02-14T13:26:47;24.88;;;8.70;;
22628;SDS011;11481;53.694;9.910;2023-02-14T13:29:19;26.70;;;9.35;;
22628;SDS011;11481;53.694;9.910;2023-02-14T13:31:51;23.08;;;7.82;;
22628;SDS011;11481;53.694;9.910;2023-02-14T13:34:28;20.00;;;7.43;;
22628;SDS011;11481;53.694;9.910;2023-02-14T13:37:02;19.50;;;7.95;;
22628;SDS011;11481;53.694;9.910;2023-02-14T13:39:35;20.52;;;7.95;;
22628;SDS011;11481;53.694;9.910;2023-02-14T13:42:08;19.55;;;8.32;;
22628;SDS011;11481;53.694;9.910;2023-02-14T13:47:15;22.15;;;8.50;;
22628;SDS011;11481;53.694;9.910;2023-02-14T13:49:50;17.65;;;7.53;;
22628;SDS011;11481;53.694;9.910;2023-02-14T13:52:37;23.52;;;8.27;;
22628;SDS011;11481;53.694;9.910;2023-02-14T13:55:12;18.60;;;7.50;;
22628;SDS011;11481;53.694;9.910;2023-02-14T13:57:42;24.25;;;7.43;;
22628;SDS011;11481;53.694;9.910;2023-02-14T14:02:43;20.92;;;8.43;;
22628;SDS011;11481;53.694;9.910;2023-02-14T14:10:49;21.08;;;7.55;;
22628;SDS011;11481;53.694;9.910;2023-02-14T14:19:00;22.05;;;8.48;;
22628;SDS011;11481;53.694;9.910;2023-02-14T14:21:41;23.42;;;8.25;;
22628;SDS011;11481;53.694;9.910;2023-02-14T14:24:23;19.40;;;8.00;;
22628;SDS011;11481;53.694;9.910;2023-02-14T14:29:36;21.50;;;7.63;;
22628;SDS011;11481;53.694;9.910;2023-02-14T14:32:09;18.70;;;8.13;;
22628;SDS011;11481;53.694;9.910;2023-02-14T14:34:51;22.77;;;8.10;;
22628;SDS011;11481;53.694;9.910;2023-02-14T14:38:11;23.25;;;8.57;;
22628;SDS011;11481;53.694;9.910;2023-02-14T14:40:27;22.13;;;8.07;;
22628;SDS011;11481;53.694;9.910;2023-02-14T14:42:59;19.88;;;7.68;;
22628;SDS011;11481;53.694;9.910;2023-02-14T14:45:31;28.63;;;8.88;;
22628;SDS011;11481;53.694;9.910;2023-02-14T14:47:59;19.65;;;7.70;;
22628;SDS011;11481;53.694;9.910;2023-02-14T14:50:33;18.45;;;6.90;;
22628;SDS011;11481;53.694;9.910;2023-02-14T14:53:02;20.77;;;8.27;;
22628;SDS011;11481;53.694;9.910;2023-02-14T14:55:37;23.23;;;8.68;;
22628;SDS011;11481;53.694;9.910;2023-02-14T14:58:28;25.98;;;8.00;;
22628;SDS011;11481;53.694;9.910;2023-02-14T15:00:59;22.10;;;8.60;;
22628;SDS011;11481;53.694;9.910;2023-02-14T15:03:26;20.35;;;7.93;;
22628;SDS011;11481;53.694;9.910;2023-02-14T15:06:04;21.73;;;7.88;;
22628;SDS011;11481;53.694;9.910;2023-02-14T15:08:42;22.88;;;8.70;;
22628;SDS011;11481;53.694;9.910;2023-02-14T15:13:59;25.15;;;8.73;;
22628;SDS011;11481;53.694;9.910;2023-02-14T15:16:33;21.70;;;7.57;;
22628;SDS011;11481;53.694;9.910;2023-02-14T15:19:06;22.15;;;8.20;;
22628;SDS011;11481;53.694;9.910;2023-02-14T15:21:36;23.45;;;9.32;;
22628;SDS011;11481;53.694;9.910;2023-02-14T15:24:10;18.50;;;8.05;;
22628;SDS011;11481;53.694;9.910;2023-02-14T15:26:42;22.55;;;8.00;;
22628;SDS011;11481;53.694;9.910;2023-02-14T15:29:17;24.73;;;9.35;;
22628;SDS011;11481;53.694;9.910;2023-02-14T15:31:49;23.00;;;8.48;;
22628;SDS011;11481;53.694;9.910;2023-02-14T15:34:19;27.23;;;9.70;;
22628;SDS011;11481;53.694;9.910;2023-02-14T15:36:49;22.13;;;8.55;;
22628;SDS011;11481;53.694;9.910;2023-02-14T15:39:19;20.05;;;7.93;;
22628;SDS011;11481;53.694;9.910;2023-02-14T15:41:51;23.05;;;8.38;;
22628;SDS011;11481;53.694;9.910;2023-02-14T15:44:21;23.42;;;8.57;;
22628;SDS011;11481;53.694;9.910;2023-02-14T15:46:54;21.02;;;8.57;;
22628;SDS011;11481;53.694;9.910;2023-02-14T15:49:29;23.55;;;8.00;;
22628;SDS011;11481;53.694;9.910;2023-02-14T15:52:00;24.25;;;9.23;;
22628;SDS011;11481;53.694;9.910;2023-02-14T15:57:04;19.77;;;8.18;;
22628;SDS011;11481;53.694;9.910;2023-02-14T15:59:33;22.83;;;8.18;;
22628;SDS011;11481;53.694;9.910;2023-02-14T16:02:25;18.25;;;7.95;;
22628;SDS011;11481;53.694;9.910;2023-02-14T16:05:14;22.15;;;8.27;;
22628;SDS011;11481;53.694;9.910;2023-02-14T16:07:55;22.92;;;8.02;;
22628;SDS011;11481;53.694;9.910;2023-02-14T16:10:30;20.60;;;8.73;;
22628;SDS011;11481;53.694;9.910;2023-02-14T16:13:02;23.92;;;8.68;;
22628;SDS011;11481;53.694;9.910;2023-02-14T16:15:32;25.35;;;9.20;;
22628;SDS011;11481;53.694;9.910;2023-02-14T16:18:00;21.85;;;8.20;;
22628;SDS011;11481;53.694;9.910;2023-02-14T16:25:54;24.48;;;8.38;;
22628;SDS011;11481;53.694;9.910;2023-02-14T16:28:29;23.75;;;8.10;;
22628;SDS011;11481;53.694;9.910;2023-02-14T16:30:57;20.88;;;8.68;;
22628;SDS011;11481;53.694;9.910;2023-02-14T16:33:26;21.23;;;8.25;;
22628;SDS011;11481;53.694;9.910;2023-02-14T16:36:17;21.80;;;8.70;;
22628;SDS011;11481;53.694;9.910;2023-02-14T16:38:49;22.77;;;8.15;;
22628;SDS011;11481;53.694;9.910;2023-02-14T16:41:18;22.85;;;8.93;;
22628;SDS011;11481;53.694;9.910;2023-02-14T16:43:47;24.55;;;9.68;;
22628;SDS011;11481;53.694;9.910;2023-02-14T16:46:15;24.85;;;7.93;;
22628;SDS011;11481;53.694;9.910;2023-02-14T16:48:47;21.85;;;8.63;;
22628;SDS011;11481;53.694;9.910;2023-02-14T16:51:19;28.88;;;9.88;;
22628;SDS011;11481;53.694;9.910;2023-02-14T16:53:47;24.92;;;9.63;;
22628;SDS011;11481;53.694;9.910;2023-02-14T16:56:19;22.48;;;8.35;;
22628;SDS011;11481;53.694;9.910;2023-02-14T16:58:57;22.75;;;9.43;;
22628;SDS011;11481;53.694;9.910;2023-02-14T17:01:25;26.45;;;9.32;;
22628;SDS011;11481;53.694;9.910;2023-02-14T17:03:52;19.73;;;8.68;;
22628;SDS011;11481;53.694;9.910;2023-02-14T17:06:20;20.33;;;8.10;;
22628;SDS011;11481;53.694;9.910;2023-02-14T17:08:53;24.35;;;8.45;;
22628;SDS011;11481;53.694;9.910;2023-02-14T17:11:21;20.70;;;9.57;;
22628;SDS011;11481;53.694;9.910;2023-02-14T17:13:50;23.52;;;8.18;;
22628;SDS011;11481;53.694;9.910;2023-02-14T17:16:18;21.67;;;8.50;;